METAR Data
IDs: Format: Raw Decoded Include TAF

Data at: 1712 UTC 24 Aug 2019

PABV 241656Z AUTO 17003KT 10SM CLR 11/07 A2967 RMK AO2 SLP054 T01110067
PABV 241556Z AUTO 16004KT 10SM CLR 08/06 A2967 RMK AO2 SLP052 T00830056
PABV 241456Z AUTO 15003KT 10SM CLR 06/03 A2965 RMK AO2 SLP045 T00610033 53010
PABV 241356Z AUTO VRB03KT 10SM CLR 08/03 A2963 RMK AO2 SLP040 T00830033
PABV 241256Z AUTO 08003KT 10SM CLR 08/04 A2963 RMK AO2 SLP038 T00780039
PABV 241156Z AUTO 00000KT 10SM CLR 08/04 A2962 RMK AO2 SLP035 60000 T00830044 10167 20083 53011
PABV 241056Z AUTO 00000KT 10SM CLR 10/05 A2960 RMK AO2 SLP029 T01000050
PABV 240956Z AUTO 00000KT 10SM CLR 11/06 A2959 RMK AO2 SLP025 T01060056
PABV 240856Z AUTO 00000KT 10SM CLR 11/06 A2958 RMK AO2 SLP023 60000 T01110056 401940083 51014
PABV 240756Z AUTO 05003KT 10SM CLR 13/07 A2957 RMK AO2 RAE01 SLP019 P0000 T01330072
PABV 240656Z AUTO 15003KT 10SM -RA BKN090 OVC110 15/06 A2956 RMK AO2 RAB48 SLP014 P0000 T01500061
PABV 240556Z AUTO 18006KT 10SM SCT085 16/06 A2954 RMK AO2 SLP008 T01610061 10194 20161 53009
PABV 240456Z AUTO 18007KT 10SM CLR 17/06 A2953 RMK AO2 SLP004 T01720061
PABV 240356Z AUTO 22006KT 10SM CLR 18/07 A2952 RMK AO2 SLP000 T01830072
PABV 240256Z AUTO 23005KT 10SM CLR 19/08 A2951 RMK AO2 SLP998 T01940083 55003
PABV 240156Z AUTO 27004KT 7SM CLR 18/09 A2951 RMK AO2 SLP998 T01830094
PABV 240056Z AUTO 27003KT 8SM CLR 19/08 A2952 RMK AO2 SLP001 T01890078
PABV 232356Z AUTO 00000KT 8SM CLR 18/07 A2952 RMK AO2 SLP002 T01830067 10189 20128 58009
PABV 232256Z AUTO VRB03KT 8SM CLR 18/07 A2954 RMK AO2 SLP007 T01780067
PABV 232156Z AUTO VRB04KT 6SM HZ CLR 16/09 A2954 RMK AO2 SLP009 T01610089
PABV 232056Z AUTO 29003KT 4SM HZ CLR 14/08 A2955 RMK AO2 SLP012 T01390083 58006
PABV 231956Z AUTO 34004KT 3SM HZ CLR 13/08 A2956 RMK AO2 SLP014 T01330078
PABV 231856Z AUTO 02005KT 4SM HZ OVC100 13/05 A2956 RMK AO2 SLP016 T01330050
PABV 231756Z AUTO 36004KT 6SM HZ CLR 13/06 A2957 RMK AO2 SLP018 T01280056 10128 20083 58002
PABV 231656Z AUTO 00000KT 8SM FEW095 11/04 A2957 RMK AO2 SLP019 T01110039
PABV 231556Z AUTO 00000KT 8SM BKN120 10/03 A2957 RMK AO2 SLP019 T01000033
PABV 231456Z AUTO 00000KT 10SM CLR 09/03 A2957 RMK AO2 SLP019 T00890033 53007
PABV 231356Z AUTO 06004KT 10SM CLR 09/05 A2957 RMK AO2 SLP017 T00890050
PABV 231256Z AUTO 13004KT 10SM CLR 09/03 A2955 RMK AO2 SLP012 T00890033
PABV 231156Z AUTO 13003KT 10SM CLR 10/04 A2955 RMK AO2 SLP012 T01000044 10144 20094 58004
PABV 231056Z AUTO 00000KT 10SM BKN120 10/04 A2956 RMK AO2 SLP014 T01000044
PABV 230956Z AUTO 20003KT 10SM OVC120 11/04 A2956 RMK AO2 SLP015 T01110039
PABV 230856Z AUTO 04003KT 10SM OVC120 12/04 A2956 RMK AO2 SLP017 T01220044 402000050 53002
PABV 230756Z AUTO 12007KT 10SM FEW110 14/03 A2956 RMK AO2 SLP013 T01440028
PABV 230656Z AUTO 12005KT 10SM CLR 14/03 A2956 RMK AO2 SLP015 T01440033
PABV 230556Z AUTO 13004KT 9SM CLR 14/04 A2956 RMK AO2 SLP015 T01440044 10200 20144 56002